Time;durP1;ratioP1;P1;durP2;ratioP2;P2;SDS_P1;SDS_P2;PMS_P1;PMS_P2;Temp;Humidity;BMP_temperature;BMP_pressure;BME280_temperature;BME280_humidity;BME280_pressure;Samples;Min_cycle;Max_cycle;Signal;HPM_P1;HPM_P2
2022/11/02 00:00:14;;;;;;;4.57;3.73;;;;;;;5.99;100.00;101359.69;4861016;29;20030;-74
2022/11/02 00:02:40;;;;;;;6.97;6.37;;;;;;;6.05;100.00;101361.88;4860972;29;20033;-75
2022/11/02 00:05:10;;;;;;;6.03;5.57;;;;;;;6.15;100.00;101369.00;4859466;29;20033;-74
2022/11/02 00:07:36;;;;;;;7.87;4.20;;;;;;;6.18;100.00;101368.75;4860559;29;20051;-75
2022/11/02 00:10:01;;;;;;;4.77;3.20;;;;;;;6.09;100.00;101368.63;4861226;29;20120;-75
2022/11/02 00:12:31;;;;;;;5.00;3.13;;;;;;;6.12;100.00;101376.31;4844174;29;20044;-74
2022/11/02 00:14:56;;;;;;;3.87;3.50;;;;;;;6.13;100.00;101381.50;4860663;29;20041;-75
2022/11/02 00:17:22;;;;;;;4.50;2.30;;;;;;;6.10;100.00;101384.38;4860949;29;20594;-75
2022/11/02 00:19:48;;;;;;;3.93;2.80;;;;;;;6.04;100.00;101376.88;4860906;29;20033;-75
2022/11/02 00:22:14;;;;;;;3.50;3.20;;;;;;;6.08;100.00;101382.81;4860751;29;20071;-74
2022/11/02 00:24:40;;;;;;;3.10;2.80;;;;;;;6.07;100.00;101391.66;4860414;29;20116;-76
2022/11/02 00:27:06;;;;;;;6.17;2.77;;;;;;;6.02;100.00;101391.19;4860275;29;20480;-75
2022/11/02 00:29:33;;;;;;;4.47;2.70;;;;;;;5.96;100.00;101387.22;4860227;29;20029;-75
2022/11/02 00:31:59;;;;;;;3.20;2.90;;;;;;;5.97;100.00;101394.19;4860294;29;20033;-74
2022/11/02 00:34:25;;;;;;;4.23;2.70;;;;;;;5.88;100.00;101379.84;4859966;29;20026;-75
2022/11/02 00:36:52;;;;;;;3.27;2.97;;;;;;;5.96;100.00;101389.03;4843957;29;20029;-75
2022/11/02 00:39:18;;;;;;;2.90;2.70;;;;;;;5.89;100.00;101393.91;4861615;29;20038;-75
2022/11/02 00:41:44;;;;;;;3.67;3.03;;;;;;;5.84;100.00;101386.34;4860587;29;20029;-75
2022/11/02 00:44:09;;;;;;;2.90;2.70;;;;;;;5.84;100.00;101378.41;4860195;29;20033;-74
2022/11/02 00:46:35;;;;;;;3.97;3.33;;;;;;;5.72;100.00;101358.19;4829466;29;20422;-74
2022/11/02 00:49:01;;;;;;;3.80;2.83;;;;;;;5.93;100.00;101394.53;4860306;29;20025;-75
2022/11/02 00:51:26;;;;;;;4.33;3.23;;;;;;;5.94;100.00;101385.66;4860090;29;20029;-75
2022/11/02 00:53:52;;;;;;;3.03;2.73;;;;;;;5.92;100.00;101384.94;4863485;29;20030;-75
2022/11/02 00:56:17;;;;;;;3.07;2.70;;;;;;;5.92;100.00;101382.28;4863598;29;20051;-74
2022/11/02 00:58:43;;;;;;;5.10;2.90;;;;;;;6.00;100.00;101401.03;4862440;29;20028;-74
2022/11/02 01:01:10;;;;;;;3.17;2.77;;;;;;;6.01;100.00;101386.88;4862392;29;20500;-75
2022/11/02 01:03:35;;;;;;;4.70;4.10;;;;;;;5.98;100.00;101384.47;4863738;29;20041;-74
2022/11/02 01:06:12;;;;;;;3.77;3.17;;;;;;;6.10;100.00;101402.03;4865491;29;20093;-75
2022/11/02 01:08:39;;;;;;;3.97;3.10;;;;;;;6.09;100.00;101400.34;4834650;29;20129;-76
2022/11/02 01:11:14;;;;;;;3.40;3.10;;;;;;;6.09;100.00;101400.34;4866514;29;20057;-74
2022/11/02 01:13:44;;;;;;;3.47;3.00;;;;;;;6.08;100.00;101393.38;4852984;29;20505;-75
2022/11/02 01:16:10;;;;;;;3.57;3.27;;;;;;;6.03;100.00;101390.22;4854406;29;20037;-74
2022/11/02 01:18:36;;;;;;;3.57;3.07;;;;;;;6.10;100.00;101407.34;4870648;29;20030;-75
2022/11/02 01:21:02;;;;;;;3.33;2.93;;;;;;;6.06;100.00;101404.06;4870209;29;20040;-74
2022/11/02 01:23:32;;;;;;;3.90;3.60;;;;;;;6.08;100.00;101404.81;4870051;29;20045;-75
2022/11/02 01:25:57;;;;;;;3.00;2.50;;;;;;;6.01;100.00;101403.56;4866777;29;20466;-74
2022/11/02 01:28:25;;;;;;;4.40;3.20;;;;;;;6.07;100.00;101418.13;4877762;29;20128;-74
2022/11/02 01:30:51;;;;;;;3.33;2.97;;;;;;;6.05;100.00;101414.75;4866402;29;20058;-75
2022/11/02 01:33:17;;;;;;;3.90;3.37;;;;;;;6.00;100.00;101412.47;4869356;29;20041;-75
2022/11/02 01:35:44;;;;;;;3.77;3.47;;;;;;;6.02;100.00;101417.63;4882593;29;20140;-75
2022/11/02 01:38:09;;;;;;;3.27;2.93;;;;;;;6.02;100.00;101420.28;4869793;29;20595;-74
2022/11/02 01:40:36;;;;;;;3.23;2.93;;;;;;;5.98;100.00;101430.25;4866177;29;20045;-75
2022/11/02 01:43:22;;;;;;;2.83;2.60;;;;;;;6.02;100.00;101425.56;4864986;29;20497;-74
2022/11/02 01:45:58;;;;;;;4.10;3.70;;;;;;;5.97;100.00;101419.78;4862349;29;20025;-75
2022/11/02 01:48:31;;;;;;;3.20;2.83;;;;;;;6.00;100.00;101416.91;4862932;29;20037;-74
2022/11/02 01:51:00;;;;;;;3.87;3.50;;;;;;;5.99;100.00;101420.50;4862667;29;20044;-74
2022/11/02 01:53:26;;;;;;;;;;;;;;;6.05;100.00;101422.69;4863058;29;20086;-74
2022/11/02 01:55:51;;;;;;;3.70;3.37;;;;;;;5.98;100.00;101424.13;4862604;29;19912;-74
2022/11/02 01:58:17;;;;;;;3.60;3.30;;;;;;;5.90;100.00;101422.91;4862832;29;20094;-75
2022/11/02 02:00:43;;;;;;;3.73;3.43;;;;;;;5.92;100.00;101411.38;4863257;29;20036;-75
2022/11/02 02:03:18;;;;;;;3.60;3.30;;;;;;;5.89;100.00;101408.00;4846186;29;20386;-75
2022/11/02 02:05:53;;;;;;;3.27;2.97;;;;;;;5.94;100.00;101412.94;4863396;29;20086;-75
2022/11/02 02:08:22;;;;;;;3.60;2.73;;;;;;;5.99;100.00;101424.00;4863381;29;20129;-75
2022/11/02 02:10:50;;;;;;;3.67;3.00;;;;;;;5.90;100.00;101407.03;4863098;29;20053;-75
2022/11/02 02:13:17;;;;;;;3.70;3.35;;;;;;;6.00;100.00;101415.09;4863564;29;20041;-73
2022/11/02 02:16:05;;;;;;;3.47;3.07;;;;;;;6.09;100.00;101426.81;4863788;29;20033;-75
2022/11/02 02:18:45;;;;;;;3.22;2.95;;;;;;;6.05;100.00;101405.00;4863423;29;20029;-75
2022/11/02 02:21:21;;;;;;;3.93;3.47;;;;;;;6.13;100.00;101418.50;4863512;29;20462;-75
2022/11/02 02:24:13;;;;;;;2.87;2.57;;;;;;;6.18;100.00;101426.09;4863095;29;20661;-76
2022/11/02 02:27:00;;;;;;;3.50;3.20;;;;;;;6.18;100.00;101428.72;4863795;29;20501;-73
2022/11/02 02:30:06;;;;;;;3.33;3.03;;;;;;;6.16;100.00;101428.84;4862057;29;20037;-74
2022/11/02 02:32:34;;;;;;;3.67;2.87;;;;;;;6.09;100.00;101426.81;4823625;29;20549;-76
2022/11/02 02:35:25;;;;;;;3.17;2.88;;;;;;;6.07;100.00;101418.13;4855881;29;20492;-74
2022/11/02 02:38:01;;;;;;;3.70;3.40;;;;;;;6.04;100.00;101428.94;4862920;29;20044;-73
2022/11/02 02:40:59;;;;;;;4.20;3.33;;;;;;;6.06;100.00;101432.28;4863826;29;20030;-74
2022/11/02 02:43:36;;;;;;;7.00;4.17;;;;;;;5.96;100.00;101431.31;4860835;29;20492;-75
2022/11/02 02:46:09;;;;;;;3.83;3.40;;;;;;;5.88;100.00;101427.44;4862282;29;20045;-74
2022/11/02 02:48:38;;;;;;;4.10;3.60;;;;;;;5.91;100.00;101436.97;4862298;29;20026;-75
2022/11/02 02:51:13;;;;;;;3.13;2.83;;;;;;;5.99;100.00;101434.56;4863152;29;20075;-75
2022/11/02 02:53:44;;;;;;;3.63;3.33;;;;;;;6.04;100.00;101439.50;4862663;29;20040;-75
2022/11/02 02:56:11;;;;;;;7.73;3.73;;;;;;;6.01;100.00;101439.75;4863902;29;20033;-75
2022/11/02 02:58:45;;;;;;;3.50;3.20;;;;;;;5.98;100.00;101429.41;4845854;29;20080;-73
2022/11/02 03:01:13;;;;;;;4.50;3.40;;;;;;;5.97;100.00;101433.84;4863923;29;20038;-75
2022/11/02 03:03:42;;;;;;;4.75;3.42;;;;;;;5.94;100.00;101449.09;4863831;29;20037;-75
2022/11/02 03:06:34;;;;;;;4.60;4.18;;;;;;;5.92;100.00;101435.16;4862728;29;20493;-75
2022/11/02 03:09:11;;;;;;;3.83;3.47;;;;;;;5.87;100.00;101438.13;4861109;29;20045;-74
2022/11/02 03:11:56;;;;;;;3.97;3.57;;;;;;;5.80;100.00;101440.41;4861352;29;20144;-76
2022/11/02 03:14:37;;;;;;;3.67;3.37;;;;;;;5.81;100.00;101439.44;4854195;29;20056;-74
2022/11/02 03:17:08;;;;;;;4.03;3.73;;;;;;;5.87;100.00;101438.13;4845342;29;20063;-74
2022/11/02 03:20:01;;;;;;;5.90;4.27;;;;;;;5.66;100.00;101419.44;4861363;29;20485;-74
2022/11/02 03:22:33;;;;;;;3.60;3.30;;;;;;;5.74;100.00;101432.91;4861311;29;20045;-71
2022/11/02 03:25:11;;;;;;;3.60;3.30;;;;;;;5.80;100.00;101443.03;4862101;29;20470;-74
2022/11/02 03:28:02;;;;;;;3.33;3.03;;;;;;;5.77;100.00;101434.47;4861143;29;20385;-74
2022/11/02 03:30:35;;;;;;;4.30;3.90;;;;;;;5.70;100.00;101436.72;4844235;29;20033;-75
2022/11/02 03:33:18;;;;;;;4.23;3.60;;;;;;;5.65;100.00;101430.97;4861466;29;20120;-75
2022/11/02 03:35:55;;;;;;;4.33;3.33;;;;;;;5.70;100.00;101436.72;4862045;29;20129;-74
2022/11/02 03:38:20;;;;;;;4.07;3.67;;;;;;;5.73;100.00;101441.78;4861962;29;20032;-74
2022/11/02 03:40:49;;;;;;;5.50;3.63;;;;;;;5.76;100.00;101441.56;4861125;29;20033;-73
2022/11/02 03:43:17;;;;;;;3.95;3.53;;;;;;;5.79;100.00;101448.44;4861173;29;20462;-75
2022/11/02 03:45:48;;;;;;;3.27;2.80;;;;;;;5.83;100.00;101442.81;4861146;29;20108;-76
2022/11/02 03:48:15;;;;;;;4.33;3.93;;;;;;;5.79;100.00;101440.50;4861136;29;20029;-75
2022/11/02 03:50:49;;;;;;;4.60;3.30;;;;;;;5.86;100.00;101447.84;4861566;29;20025;-74
2022/11/02 03:53:24;;;;;;;4.10;3.70;;;;;;;5.88;100.00;101443.28;4861819;29;20128;-75
2022/11/02 03:55:54;;;;;;;3.97;3.30;;;;;;;5.89;100.00;101445.00;4861359;29;20025;-74
2022/11/02 03:58:20;;;;;;;2.97;2.63;;;;;;;5.89;100.00;101445.00;4861202;29;20025;-75
2022/11/02 04:00:57;;;;;;;3.73;3.30;;;;;;;5.77;100.00;101421.25;4860732;29;20035;-75
2022/11/02 04:03:27;;;;;;;3.00;2.70;;;;;;;5.87;100.00;101449.53;4861253;29;20063;-75
2022/11/02 04:05:53;;;;;;;3.57;3.27;;;;;;;5.75;100.00;101437.22;4861556;29;20033;-74
2022/11/02 04:08:28;;;;;;;3.40;3.10;;;;;;;5.81;100.00;101450.00;4861028;29;20094;-75
2022/11/02 04:16:23;;;;;;;3.00;2.70;;;;;;;5.77;100.00;101439.75;4860582;29;20121;-74
2022/11/02 04:19:34;;;;;;;3.73;3.23;;;;;;;5.76;100.00;101446.00;4859895;29;20033;-74
2022/11/02 04:21:34;;;;;;;5.97;3.30;;;;;;;5.74;100.00;101445.28;4849029;29;20038;-75
2022/11/02 04:26:45;;;;;;;3.77;3.47;;;;;;;5.67;100.00;101452.81;4860785;29;20041;-74
2022/11/02 04:29:11;;;;;;;3.70;3.40;;;;;;;5.57;100.00;101439.47;4861245;29;20051;-74
2022/11/02 04:31:36;;;;;;;3.57;3.10;;;;;;;5.63;100.00;101448.72;4860455;29;20393;-74
2022/11/02 04:34:02;;;;;;;3.97;3.40;;;;;;;5.66;100.00;101455.59;4860751;29;20165;-75
2022/11/02 04:36:29;;;;;;;3.57;3.27;;;;;;;5.71;100.00;101456.91;4859240;29;20029;-74
2022/11/02 04:38:55;;;;;;;3.50;3.20;;;;;;;5.71;100.00;101451.63;4861393;29;20072;-73
2022/11/02 04:41:40;;;;;;;4.47;3.10;;;;;;;5.78;100.00;101460.81;4861093;29;20041;-74
2022/11/02 04:44:06;;;;;;;4.60;4.07;;;;;;;5.73;100.00;101451.53;4860219;29;20034;-73
2022/11/02 04:46:34;;;;;;;5.13;3.73;;;;;;;5.78;100.00;101455.53;4859782;29;20029;-73
2022/11/02 04:49:00;;;;;;;4.70;3.92;;;;;;;5.82;100.00;101454.34;4859589;29;20033;-76
2022/11/02 04:51:28;;;;;;;7.50;4.23;;;;;;;5.85;100.00;101464.69;4859774;29;20033;-74
2022/11/02 04:53:55;;;;;;;3.73;3.43;;;;;;;5.81;100.00;101463.22;4844038;29;20029;-76
2022/11/02 04:56:21;;;;;;;4.33;3.83;;;;;;;5.79;100.00;101457.22;4860128;29;20028;-75
2022/11/02 04:58:52;;;;;;;6.90;4.13;;;;;;;5.79;100.00;101467.78;4859873;29;20025;-74
2022/11/02 05:01:18;;;;;;;5.63;4.03;;;;;;;5.78;100.00;101455.53;4859572;29;20040;-74
2022/11/02 05:03:48;;;;;;;3.83;3.43;;;;;;;5.92;100.00;101466.88;4859393;29;20041;-75
2022/11/02 05:06:14;;;;;;;5.67;4.13;;;;;;;5.98;100.00;101471.72;4859833;29;20117;-75
2022/11/02 05:08:40;;;;;;;4.93;3.83;;;;;;;6.01;100.00;101456.44;4859818;29;20034;-75
2022/11/02 05:11:09;;;;;;;4.60;4.20;;;;;;;5.97;100.00;101443.59;4859687;29;20126;-74
2022/11/02 05:13:39;;;;;;;3.77;3.37;;;;;;;6.03;100.00;101464.25;4859042;29;20556;-76
2022/11/02 05:16:05;;;;;;;4.00;3.70;;;;;;;6.00;100.00;101460.06;4859210;29;20470;-75
2022/11/02 05:18:31;;;;;;;5.33;3.93;;;;;;;6.04;100.00;101466.78;4860258;29;20080;-74
2022/11/02 05:20:59;;;;;;;4.00;3.60;;;;;;;5.99;100.00;101468.94;4860122;29;20374;-75
2022/11/02 05:23:25;;;;;;;4.23;3.83;;;;;;;5.87;100.00;101460.13;4859561;29;20026;-75
2022/11/02 05:25:53;;;;;;;4.33;3.60;;;;;;;5.95;100.00;101479.88;4859670;29;20029;-74
2022/11/02 05:28:21;;;;;;;4.70;4.10;;;;;;;5.92;100.00;101483.59;4858645;29;20037;-75
2022/11/02 05:30:46;;;;;;;4.60;4.20;;;;;;;5.89;100.00;101474.09;4860189;29;20093;-74
2022/11/02 05:33:15;;;;;;;5.87;4.87;;;;;;;5.92;100.00;101482.75;4859972;29;20033;-74
2022/11/02 05:35:40;;;;;;;5.28;4.78;;;;;;;5.80;100.00;101461.53;4858610;29;20041;-73
2022/11/02 05:38:12;;;;;;;4.47;4.07;;;;;;;5.85;100.00;101477.91;4861225;29;20418;-75
2022/11/02 05:40:39;;;;;;;5.87;4.77;;;;;;;5.89;100.00;101494.38;4865420;29;20520;-76
2022/11/02 05:43:08;;;;;;;6.13;5.50;;;;;;;5.77;100.00;101472.31;4864873;29;20034;-74
2022/11/02 05:45:34;;;;;;;;;;;;;;;5.88;100.00;101493.53;4863546;29;20025;-76
2022/11/02 05:48:01;;;;;;;6.50;5.30;;;;;;;5.81;100.00;101492.31;4862415;29;20257;-75
2022/11/02 05:50:27;;;;;;;8.40;6.27;;;;;;;5.81;100.00;101487.00;4862434;29;20493;-75
2022/11/02 05:52:55;;;;;;;8.30;6.27;;;;;;;5.78;100.00;101475.81;4862302;29;20040;-76
2022/11/02 05:55:21;;;;;;;7.28;6.05;;;;;;;5.84;100.00;101492.06;4862760;29;20026;-76
2022/11/02 05:57:54;;;;;;;7.33;6.23;;;;;;;5.83;100.00;101482.47;4862174;29;20034;-76
2022/11/02 06:00:23;;;;;;;8.37;6.53;;;;;;;5.87;100.00;101478.63;4861717;29;20500;-76
2022/11/02 06:02:57;;;;;;;7.17;6.47;;;;;;;5.91;100.00;101484.56;4829733;29;20557;-75
2022/11/02 06:05:24;;;;;;;7.80;6.23;;;;;;;5.84;100.00;101475.38;4844997;29;20113;-76
2022/11/02 06:07:49;;;;;;;8.13;6.60;;;;;;;5.80;100.00;101477.41;4861282;29;20067;-74
2022/11/02 06:10:19;;;;;;;7.13;6.33;;;;;;;5.82;100.00;101483.41;4828990;29;20053;-78
2022/11/02 06:12:53;;;;;;;8.57;7.20;;;;;;;5.87;100.00;101489.19;4845557;29;20090;-75
2022/11/02 06:15:19;;;;;;;7.50;6.37;;;;;;;5.77;100.00;101480.25;4862181;29;20079;-76
2022/11/02 06:17:45;;;;;;;9.07;7.57;;;;;;;5.78;100.00;101492.53;4845517;29;20029;-76
2022/11/02 06:20:10;;;;;;;13.03;7.33;;;;;;;5.74;100.00;101469.06;4844438;29;20039;-76
2022/11/02 06:22:40;;;;;;;8.77;6.60;;;;;;;5.89;100.00;101487.31;4844447;29;20042;-73
2022/11/02 06:25:07;;;;;;;9.07;6.27;;;;;;;5.80;100.00;101479.19;4844664;29;20120;-75
2022/11/02 06:27:32;;;;;;;9.13;7.30;;;;;;;5.83;100.00;101479.81;4829235;29;20029;-74
2022/11/02 06:30:24;;;;;;;10.27;7.43;;;;;;;5.96;100.00;101492.13;4860583;29;20074;-75
2022/11/02 06:32:51;;;;;;;7.83;6.33;;;;;;;5.84;100.00;101468.28;4860228;29;20049;-74
2022/11/02 06:35:19;;;;;;;9.30;7.40;;;;;;;6.04;100.00;101495.88;4848635;29;20048;-78
2022/11/02 06:37:45;;;;;;;12.10;7.73;;;;;;;6.06;100.00;101495.75;4873843;29;20116;-78
2022/11/02 06:40:12;;;;;;;10.50;7.33;;;;;;;6.03;100.00;101490.72;4856035;29;20064;-75
2022/11/02 06:42:39;;;;;;;10.53;7.07;;;;;;;6.13;100.00;101503.13;4871598;29;20037;-75
2022/11/02 06:45:06;;;;;;;15.23;6.93;;;;;;;6.14;100.00;101509.28;4852814;29;20033;-75
2022/11/02 06:47:34;;;;;;;12.13;7.97;;;;;;;6.00;100.00;101501.53;4862927;29;20034;-75
2022/11/02 06:50:00;;;;;;;10.73;6.95;;;;;;;6.04;100.00;101514.38;4844602;29;20033;-77
2022/11/02 06:52:27;;;;;;;16.47;8.43;;;;;;;5.86;100.00;101479.56;4861113;29;20037;-75
2022/11/02 06:54:53;;;;;;;9.90;7.30;;;;;;;5.97;100.00;101496.47;4847065;29;20022;-77
2022/11/02 06:57:19;;;;;;;11.97;7.70;;;;;;;5.95;100.00;101490.44;4864823;29;20029;-76
2022/11/02 06:59:44;;;;;;;8.80;7.67;;;;;;;5.97;100.00;101499.94;4864367;29;20052;-76
2022/11/02 07:02:10;;;;;;;12.23;7.93;;;;;;;5.95;100.00;101507.16;4846316;29;20051;-74
2022/11/02 07:04:35;;;;;;;9.13;6.50;;;;;;;5.89;100.00;101499.66;4861373;29;20082;-75
2022/11/02 07:07:01;;;;;;;12.70;7.30;;;;;;;5.84;100.00;101504.44;4861342;29;20037;-75
2022/11/02 07:09:27;;;;;;;14.90;7.50;;;;;;;5.91;100.00;101503.06;4844954;29;20039;-75
2022/11/02 07:11:53;;;;;;;9.97;7.10;;;;;;;5.96;100.00;101511.47;4862103;29;20152;-75
2022/11/02 07:14:20;;;;;;;9.67;6.70;;;;;;;5.90;100.00;101506.66;4862865;29;20037;-74
2022/11/02 07:16:48;;;;;;;8.38;6.47;;;;;;;5.95;100.00;101517.72;4861908;29;20463;-74
2022/11/02 07:19:14;;;;;;;10.47;6.77;;;;;;;6.00;100.00;101518.22;4868734;29;20128;-76
2022/11/02 07:21:40;;;;;;;8.73;7.20;;;;;;;6.01;100.00;101519.06;4866943;29;20033;-77
2022/11/02 07:24:08;;;;;;;8.33;6.83;;;;;;;6.05;100.00;101521.38;4868530;29;20104;-75
2022/11/02 07:26:37;;;;;;;12.32;7.82;;;;;;;5.92;100.00;101527.69;4868374;29;20025;-75
2022/11/02 07:29:06;;;;;;;8.63;7.47;;;;;;;5.69;100.00;101487.91;4868294;29;20065;-76
2022/11/02 07:31:31;;;;;;;11.10;7.63;;;;;;;5.95;100.00;101527.47;4865755;29;20041;-76
2022/11/02 07:33:57;;;;;;;11.93;7.73;;;;;;;5.92;100.00;101525.91;4861622;29;20045;-76
2022/11/02 07:36:22;;;;;;;10.93;7.93;;;;;;;5.96;100.00;101527.34;4861369;29;20078;-77
2022/11/02 07:38:48;;;;;;;10.43;7.80;;;;;;;5.96;100.00;101537.09;4860564;29;20545;-76
2022/11/02 07:41:14;;;;;;;10.97;7.80;;;;;;;6.04;100.00;101530.25;4860978;29;20043;-76
2022/11/02 07:43:39;;;;;;;12.33;6.53;;;;;;;6.06;100.00;101538.91;4860642;29;20116;-75
2022/11/02 07:46:05;;;;;;;9.47;7.10;;;;;;;6.06;100.00;101532.78;4860267;29;20030;-75
2022/11/02 07:48:31;;;;;;;9.10;6.37;;;;;;;6.08;100.00;101536.19;4860684;29;20044;-75
2022/11/02 07:50:59;;;;;;;8.77;6.07;;;;;;;6.16;100.00;101536.44;4861696;29;20466;-76
2022/11/02 07:53:25;;;;;;;10.40;6.20;;;;;;;6.16;100.00;101528.50;4860560;29;20352;-75
2022/11/02 07:55:50;;;;;;;8.97;6.50;;;;;;;6.23;100.00;101540.31;4860513;29;20036;-76
2022/11/02 07:58:16;;;;;;;8.80;7.27;;;;;;;6.14;100.00;101520.69;4861186;29;20033;-76
2022/11/02 08:00:41;;;;;;;14.47;6.47;;;;;;;6.22;100.00;101536.81;4861737;29;20036;-75
2022/11/02 08:03:09;;;;;;;9.50;6.70;;;;;;;6.09;100.00;101516.72;4861185;29;20425;-75
2022/11/02 08:05:37;;;;;;;11.17;7.23;;;;;;;6.17;100.00;101536.31;4860894;29;20037;-75
2022/11/02 08:08:05;;;;;;;10.45;7.43;;;;;;;6.13;100.00;101542.81;4860924;29;20421;-75
2022/11/02 08:10:32;;;;;;;10.57;6.53;;;;;;;6.09;100.00;101538.72;4855739;29;20479;-74
2022/11/02 08:12:58;;;;;;;9.30;6.75;;;;;;;6.08;100.00;101541.47;4842606;29;20046;-76
2022/11/02 08:15:24;;;;;;;6.83;6.13;;;;;;;6.05;100.00;101536.38;4842593;29;20040;-74
2022/11/02 08:18:34;;;;;;;10.37;7.00;;;;;;;6.08;100.00;101534.38;4842881;29;20069;-75
2022/11/02 08:20:59;;;;;;;8.83;6.53;;;;;;;6.18;100.00;101537.16;4836395;29;20034;-77
2022/11/02 08:23:41;;;;;;;8.00;6.88;;;;;;;6.19;100.00;101528.28;4842203;29;20034;-74
2022/11/02 08:26:07;;;;;;;12.10;6.70;;;;;;;6.14;100.00;101525.13;4821878;29;20030;-75
2022/11/02 08:28:38;;;;;;;9.20;6.33;;;;;;;6.23;100.00;101535.00;4860620;29;20049;-75
2022/11/02 08:31:13;;;;;;;8.33;6.23;;;;;;;6.12;100.00;101524.41;4852360;29;20464;-74
2022/11/02 08:34:06;;;;;;;7.63;6.30;;;;;;;6.18;100.00;101540.66;4849122;29;20041;-75
2022/11/02 08:36:34;;;;;;;6.60;5.47;;;;;;;6.22;100.00;101544.75;4828779;29;20498;-76
2022/11/02 08:39:00;;;;;;;7.80;7.00;;;;;;;6.24;100.00;101538.50;4845698;29;20042;-74
2022/11/02 08:44:23;;;;;;;7.30;5.60;;;;;;;6.21;100.00;101532.50;4845220;29;20052;-75
2022/11/02 08:46:48;;;;;;;9.03;7.40;;;;;;;6.32;100.00;101546.69;4844147;29;20038;-76
2022/11/02 08:49:17;;;;;;;7.17;5.83;;;;;;;6.34;100.00;101540.31;4844066;29;20090;-76
2022/11/02 08:51:44;;;;;;;7.38;6.03;;;;;;;6.35;100.00;101549.94;4843937;29;20033;-77
2022/11/02 08:54:10;;;;;;;7.23;6.53;;;;;;;6.39;100.00;101556.72;4814033;29;20026;-76
2022/11/02 08:56:36;;;;;;;7.17;5.67;;;;;;;6.44;100.00;101554.56;4829197;29;20053;-75
2022/11/02 08:59:01;;;;;;;7.67;5.93;;;;;;;6.47;100.00;101545.56;4844517;29;20029;-78
2022/11/02 09:01:27;;;;;;;7.57;6.07;;;;;;;6.54;100.00;101549.41;4841909;29;20025;-75
2022/11/02 09:03:53;;;;;;;10.57;6.63;;;;;;;6.53;100.00;101537.97;4843178;29;20045;-76
2022/11/02 09:06:18;;;;;;;7.07;5.60;;;;;;;6.56;100.00;101558.06;4843737;29;20581;-75
2022/11/02 09:08:44;;;;;;;7.23;5.53;;;;;;;6.53;100.00;101556.50;4827891;29;20087;-76
2022/11/02 09:11:29;;;;;;;5.80;4.97;;;;;;;6.52;100.00;101560.09;4848378;29;20113;-76
2022/11/02 09:14:06;;;;;;;6.17;5.17;;;;;;;6.37;100.00;101541.94;4848617;29;20052;-75
2022/11/02 09:16:33;;;;;;;6.07;4.88;;;;;;;6.32;100.00;101550.19;4849032;29;20079;-76
2022/11/02 09:18:59;;;;;;;5.43;4.87;;;;;;;6.24;100.00;101535.84;4833994;29;20037;-75
2022/11/02 09:21:36;;;;;;;6.17;4.80;;;;;;;6.22;100.00;101531.53;4849330;29;20022;-77
2022/11/02 09:24:02;;;;;;;5.07;4.43;;;;;;;6.28;100.00;101538.16;4831580;29;20491;-75
2022/11/02 09:26:27;;;;;;;5.17;4.40;;;;;;;6.44;100.00;101554.56;4828484;29;20072;-76
2022/11/02 09:28:53;;;;;;;6.03;4.90;;;;;;;6.49;100.00;101551.56;4844944;29;20053;-75
2022/11/02 09:31:28;;;;;;;5.87;4.47;;;;;;;6.58;100.00;101555.31;4850470;29;20030;-74
2022/11/02 09:33:55;;;;;;;7.00;5.50;;;;;;;6.57;100.00;101558.91;4826567;29;20133;-76
2022/11/02 09:36:20;;;;;;;4.90;4.37;;;;;;;6.58;100.00;101553.50;4845083;29;20033;-72
2022/11/02 09:38:46;;;;;;;7.20;4.93;;;;;;;6.53;100.00;101539.78;4844823;29;20050;-76
2022/11/02 09:41:47;;;;;;;5.57;4.27;;;;;;;6.66;100.00;101555.59;4844417;29;20033;-75
2022/11/02 09:44:26;;;;;;;4.40;3.73;;;;;;;6.72;100.00;101549.81;4806118;29;20066;-75
2022/11/02 09:46:56;;;;;;;5.43;4.37;;;;;;;6.65;100.00;101532.69;4817799;29;20033;-76
2022/11/02 09:49:34;;;;;;;4.30;3.90;;;;;;;6.73;100.00;101538.25;4836534;29;20041;-76
2022/11/02 09:52:06;;;;;;;5.72;4.05;;;;;;;6.66;100.00;101527.31;4833982;29;20040;-76
2022/11/02 09:54:48;;;;;;;6.50;4.30;;;;;;;6.55;100.00;101515.84;4838065;29;20482;-77
2022/11/02 09:57:32;;;;;;;6.43;4.50;;;;;;;6.57;100.00;101537.75;4834384;29;20037;-77
2022/11/02 10:00:02;;;;;;;5.63;4.83;;;;;;;6.60;100.00;101553.38;4847314;29;20113;-75
2022/11/02 10:03:11;;;;;;;5.90;4.80;;;;;;;6.58;100.00;101553.50;4830992;29;20026;-73
2022/11/02 10:06:14;;;;;;;7.30;4.80;;;;;;;6.58;100.00;101550.00;4818335;29;20077;-77
2022/11/02 10:09:02;;;;;;;6.97;4.50;;;;;;;6.60;100.00;101558.66;4820791;29;20037;-77
2022/11/02 10:11:58;;;;;;;4.30;3.90;;;;;;;6.66;100.00;101556.41;4837882;29;20622;-77
2022/11/02 10:14:41;;;;;;;5.97;4.17;;;;;;;6.57;100.00;101537.75;4818807;29;20092;-75
2022/11/02 10:17:23;;;;;;;7.07;5.13;;;;;;;6.68;100.00;101556.31;4827782;29;20026;-75
2022/11/02 10:19:55;;;;;;;4.90;3.70;;;;;;;6.62;100.00;101562.03;4827657;29;20026;-77
2022/11/02 10:22:26;;;;;;;4.30;3.80;;;;;;;6.61;100.00;101570.94;4844478;29;20045;-76
2022/11/02 10:24:55;;;;;;;5.67;5.07;;;;;;;6.53;100.00;101564.44;4849427;29;20078;-76
2022/11/02 10:27:25;;;;;;;5.37;4.83;;;;;;;6.50;100.00;101569.97;4827184;29;20071;-76
2022/11/02 10:29:55;;;;;;;5.10;4.60;;;;;;;6.52;100.00;101573.34;4844072;29;20057;-77
2022/11/02 10:32:22;;;;;;;5.80;5.20;;;;;;;6.45;100.00;101566.00;4826710;29;20037;-77
2022/11/02 10:35:48;;;;;;;5.37;4.23;;;;;;;6.56;100.00;101573.94;4843262;29;20041;-75
2022/11/02 10:38:41;;;;;;;5.80;4.73;;;;;;;6.56;100.00;101578.41;4795045;29;20426;-77
2022/11/02 10:41:25;;;;;;;4.90;4.37;;;;;;;6.61;100.00;101576.25;4843018;29;20030;-75
2022/11/02 10:44:15;;;;;;;5.37;4.00;;;;;;;6.64;100.00;101578.66;4846768;29;20032;-79
2022/11/02 10:50:31;;;;;;;5.07;4.40;;;;;;;6.63;100.00;101572.50;4837191;29;20394;-77
2022/11/02 10:53:16;;;;;;;6.30;5.17;;;;;;;6.50;100.00;101562.03;4844515;29;20123;-73
2022/11/02 10:59:38;;;;;;;5.60;5.10;;;;;;;6.52;100.00;101557.47;4787382;30;20070;-78
2022/11/02 11:02:14;;;;;;;4.77;4.33;;;;;;;6.60;100.00;101585.13;4808601;29;20077;-75
2022/11/02 11:04:41;;;;;;;5.67;5.17;;;;;;;6.59;100.00;101568.41;4852440;29;20095;-73
2022/11/02 11:07:17;;;;;;;5.60;5.07;;;;;;;6.67;100.00;101570.50;4852877;29;20042;-73
2022/11/02 11:09:54;;;;;;;7.37;4.27;;;;;;;6.64;100.00;101563.59;4832102;29;20026;-71
2022/11/02 11:12:39;;;;;;;5.63;4.57;;;;;;;6.56;100.00;101562.53;4848184;29;20125;-73
2022/11/02 11:15:21;;;;;;;6.70;5.10;;;;;;;6.59;100.00;101573.72;4862862;29;20053;-76
2022/11/02 11:17:48;;;;;;;5.37;4.67;;;;;;;6.53;100.00;101559.16;4847147;29;20021;-72
2022/11/02 11:20:39;;;;;;;5.57;4.97;;;;;;;6.73;100.00;101572.66;4865908;29;20034;-75
2022/11/02 11:24:14;;;;;;;6.30;5.30;;;;;;;6.91;100.00;101584.47;4870216;29;20090;-80
2022/11/02 11:27:00;;;;;;;4.40;4.00;;;;;;;6.96;100.00;101582.34;4868949;29;20040;-76
2022/11/02 11:29:38;;;;;;;11.07;4.10;;;;;;;6.54;100.00;101538.81;4846232;29;20439;-76
2022/11/02 11:35:51;;;;;;;12.33;3.87;;;;;;;6.79;100.00;101585.44;4869972;29;20052;-76
2022/11/02 11:38:32;;;;;;;4.73;3.57;;;;;;;6.70;100.00;101563.16;4867480;29;20037;-76
2022/11/02 11:41:51;;;;;;;5.33;3.20;;;;;;;6.83;100.00;101586.88;4823195;29;20394;-76
2022/11/02 11:44:18;;;;;;;4.67;3.40;;;;;;;6.70;100.00;101562.31;4861439;29;20370;-77
2022/11/02 11:46:58;;;;;;;7.67;4.50;;;;;;;6.57;100.00;101564.19;4860635;29;20029;-77
2022/11/02 11:49:26;;;;;;;6.40;3.37;;;;;;;6.63;100.00;101579.59;4828072;29;20061;-79
2022/11/02 11:51:56;;;;;;;6.32;4.32;;;;;;;6.63;100.00;101588.41;4828194;29;20048;-77
2022/11/02 11:54:46;;;;;;;5.07;3.77;;;;;;;6.64;100.00;101571.56;4847793;29;20121;-76
2022/11/02 11:57:35;;;;;;;7.37;3.27;;;;;;;6.56;100.00;101560.72;4843304;29;20033;-78
2022/11/02 12:00:31;;;;;;;3.50;3.13;;;;;;;6.72;100.00;101573.63;4861518;29;20038;-76
2022/11/02 12:03:24;;;;;;;5.67;4.50;;;;;;;6.72;100.00;101569.19;4856792;29;20037;-76
2022/11/02 12:06:24;;;;;;;4.13;3.73;;;;;;;6.73;100.00;101572.66;4856054;29;20050;-74
2022/11/02 12:09:15;;;;;;;5.07;4.57;;;;;;;6.69;100.00;101565.94;4855994;29;20030;-74